Terminal Aerodrome Forecast
Issued by NWS Cleveland, OH

Home | Current Version | Previous Version | Graphics & Text | Print | Product List | Glossary On
Versions: 1 2 3 4 5 6 7 8 9 10 11 12 13 14 15 16 17
000
FTUS41 KCLE 211100
TAFCAK
TAF
KCAK 211126Z 2112/2212 29008KT 4SM -DZ BR SCT008 OVC035
      TEMPO 2112/2115 1 1/2SM -SHRA BR BKN008
     FM211500 32011KT 4SM BR VCSH SCT008 OVC015
     FM211900 33010G16KT 6SM HZ VCSH OVC020
     FM220200 35008KT 5SM BR VCSH OVC015=

USA.gov is the U.S. government's official web portal to all federal, state and local government web resources and services.